Time;durP1;ratioP1;P1;durP2;ratioP2;P2;SDS_P1;SDS_P2;PMS_P1;PMS_P2;Temp;Humidity;BMP_temperature;BMP_pressure;BME280_temperature;BME280_humidity;BME280_pressure;Samples;Min_cycle;Max_cycle;Signal;HPM_P1;HPM_P2
2021/04/11 00:01:37;;;;;;;3.90;3.57;;;;;;;;;;5116078;28;20501;-75
2021/04/11 00:04:04;;;;;;;6.97;3.93;;;;;;;;;;5116200;28;20316;-76
2021/04/11 00:06:30;;;;;;;6.80;4.60;;;;;;;;;;5115151;28;20521;-75
2021/04/11 00:08:56;;;;;;;4.83;4.07;;;;;;;;;;5115310;28;20211;-74
2021/04/11 00:11:22;;;;;;;5.07;4.03;;;;;;;;;;5115358;28;20526;-77
2021/04/11 00:13:50;;;;;;;4.47;4.07;;;;;;;;;;5116160;28;20201;-76
2021/04/11 00:16:16;;;;;;;5.63;4.33;;;;;;;;;;5115443;28;20236;-76
2021/04/11 00:18:42;;;;;;;5.13;4.20;;;;;;;;;;5115568;28;20213;-77
2021/04/11 00:21:09;;;;;;;8.33;4.60;;;;;;;;;;5115434;28;20236;-76
2021/04/11 00:23:35;;;;;;;5.43;4.87;;;;;;;;;;5115722;28;20248;-75
2021/04/11 00:26:02;;;;;;;4.70;4.30;;;;;;;;;;5115748;28;20221;-75
2021/04/11 00:28:29;;;;;;;7.37;4.20;;;;;;;;;;5115989;28;20240;-78
2021/04/11 00:30:55;;;;;;;5.70;5.03;;;;;;;;;;5115675;28;20517;-77
2021/04/11 00:33:23;;;;;;;7.87;4.87;;;;;;;;;;5115456;28;20227;-74
2021/04/11 00:35:52;;;;;;;7.53;4.23;;;;;;;;;;5114324;28;20231;-75
2021/04/11 00:38:19;;;;;;;6.30;4.27;;;;;;;;;;5115436;28;20204;-78
2021/04/11 00:40:45;;;;;;;7.63;4.47;;;;;;;;;;5114598;28;20681;-78
2021/04/11 00:43:12;;;;;;;5.30;4.20;;;;;;;;;;5115606;28;20248;-79
2021/04/11 00:45:41;;;;;;;4.90;4.50;;;;;;;;;;5115480;28;20261;-76
2021/04/11 00:48:08;;;;;;;6.13;4.33;;;;;;;;;;5115287;28;20244;-78
2021/04/11 00:50:34;;;;;;;5.83;4.50;;;;;;;;;;5115006;28;20578;-78
2021/04/11 00:53:00;;;;;;;4.40;4.03;;;;;;;;;;5115812;28;20232;-78
2021/04/11 00:55:27;;;;;;;8.77;4.60;;;;;;;;;;5114542;28;20236;-78
2021/04/11 00:57:54;;;;;;;4.97;4.23;;;;;;;;;;5115515;28;20635;-78
2021/04/11 01:00:22;;;;;;;5.33;4.27;;;;;;;;;;5114783;28;20330;-78
2021/04/11 01:02:48;;;;;;;5.00;4.50;;;;;;;;;;5115545;28;20260;-78
2021/04/11 01:05:16;;;;;;;5.47;4.93;;;;;;;;;;5114735;28;20211;-78
2021/04/11 01:07:43;;;;;;;5.67;4.53;;;;;;;;;;5115078;28;20324;-76
2021/04/11 01:10:10;;;;;;;5.77;4.73;;;;;;;;;;5114801;28;20251;-78
2021/04/11 01:12:37;;;;;;;5.37;4.77;;;;;;;;;;5114995;28;20228;-78
2021/04/11 01:15:05;;;;;;;5.20;4.70;;;;;;;;;;5114942;28;20237;-78
2021/04/11 01:17:31;;;;;;;7.40;5.37;;;;;;;;;;5115459;28;20221;-76
2021/04/11 01:19:57;;;;;;;7.53;4.67;;;;;;;;;;5115075;28;20601;-77
2021/04/11 01:22:28;;;;;;;4.93;4.43;;;;;;;;;;5118803;28;20212;-79
2021/04/11 01:24:56;;;;;;;5.93;4.50;;;;;;;;;;5118989;28;20225;-75
2021/04/11 01:27:24;;;;;;;9.37;4.73;;;;;;;;;;5119049;28;20228;-75
2021/04/11 01:29:51;;;;;;;5.20;3.83;;;;;;;;;;5118463;28;20541;-75
2021/04/11 01:32:18;;;;;;;4.53;4.03;;;;;;;;;;5118663;28;20228;-75
2021/04/11 01:34:44;;;;;;;4.83;3.87;;;;;;;;;;5118054;28;20255;-77
2021/04/11 01:37:11;;;;;;;5.70;4.03;;;;;;;;;;5118264;28;20235;-76
2021/04/11 01:39:39;;;;;;;4.00;3.70;;;;;;;;;;5118666;28;20205;-75
2021/04/11 01:42:06;;;;;;;5.17;4.20;;;;;;;;;;5118924;28;20240;-74
2021/04/11 01:44:40;;;;;;;4.03;3.70;;;;;;;;;;5118865;28;20252;-75
2021/04/11 01:47:06;;;;;;;4.87;3.83;;;;;;;;;;5118136;28;20510;-76
2021/04/11 01:49:33;;;;;;;5.27;4.00;;;;;;;;;;5118409;28;20209;-75
2021/04/11 01:52:00;;;;;;;6.20;4.00;;;;;;;;;;5117971;28;20236;-74
2021/04/11 01:54:29;;;;;;;4.33;4.00;;;;;;;;;;5118576;28;20231;-77
2021/04/11 01:56:55;;;;;;;5.87;4.20;;;;;;;;;;5118344;28;20239;-76
2021/04/11 01:59:24;;;;;;;4.17;3.87;;;;;;;;;;5118105;28;20229;-77
2021/04/11 02:01:50;;;;;;;4.67;4.20;;;;;;;;;;5118285;28;20232;-75
2021/04/11 02:04:17;;;;;;;4.27;3.97;;;;;;;;;;5118591;28;20253;-75
2021/04/11 02:06:44;;;;;;;5.00;4.10;;;;;;;;;;5118167;28;20535;-77
2021/04/11 02:09:15;;;;;;;8.17;4.40;;;;;;;;;;5118449;28;20224;-75
2021/04/11 02:11:41;;;;;;;5.00;3.90;;;;;;;;;;5117958;28;20274;-76
2021/04/11 02:14:09;;;;;;;6.53;3.80;;;;;;;;;;5118223;28;20236;-76
2021/04/11 02:16:36;;;;;;;5.43;4.27;;;;;;;;;;5117224;28;20239;-75
2021/04/11 02:19:04;;;;;;;9.77;4.53;;;;;;;;;;5117884;28;20240;-76
2021/04/11 02:21:30;;;;;;;4.17;3.87;;;;;;;;;;5118168;28;20229;-78
2021/04/11 02:23:57;;;;;;;4.80;4.37;;;;;;;;;;5117914;28;20241;-76
2021/04/11 02:26:23;;;;;;;4.63;4.23;;;;;;;;;;5117975;28;20205;-76
2021/04/11 02:28:49;;;;;;;4.50;4.10;;;;;;;;;;5117902;28;20205;-79
2021/04/11 02:31:17;;;;;;;4.87;4.33;;;;;;;;;;5117550;28;20243;-77
2021/04/11 02:33:54;;;;;;;10.03;4.23;;;;;;;;;;5117926;28;20197;-76
2021/04/11 02:36:21;;;;;;;4.40;4.00;;;;;;;;;;5117565;28;20233;-76
2021/04/11 02:38:48;;;;;;;6.60;4.57;;;;;;;;;;5117479;28;20209;-77
2021/04/11 02:41:15;;;;;;;4.80;4.40;;;;;;;;;;5117703;28;20236;-75
2021/04/11 02:43:42;;;;;;;5.13;4.57;;;;;;;;;;5117607;28;20599;-77
2021/04/11 02:46:08;;;;;;;5.20;4.70;;;;;;;;;;5117767;28;20232;-75
2021/04/11 02:48:34;;;;;;;5.57;4.63;;;;;;;;;;5117607;28;20205;-75
2021/04/11 02:51:02;;;;;;;5.03;4.53;;;;;;;;;;5117456;28;20535;-78
2021/04/11 02:53:30;;;;;;;5.07;4.43;;;;;;;;;;5117465;28;20205;-76
2021/04/11 02:55:56;;;;;;;4.80;4.33;;;;;;;;;;5116783;28;20647;-77
2021/04/11 02:58:23;;;;;;;4.80;4.40;;;;;;;;;;5117030;28;20224;-74
2021/04/11 03:00:50;;;;;;;6.70;4.10;;;;;;;;;;5117366;28;20201;-75
2021/04/11 03:03:16;;;;;;;5.13;4.37;;;;;;;;;;5116962;28;20511;-75
2021/04/11 03:05:42;;;;;;;4.67;4.30;;;;;;;;;;5116835;28;20201;-76
2021/04/11 03:08:11;;;;;;;5.17;4.30;;;;;;;;;;5117193;28;20232;-75
2021/04/11 03:10:40;;;;;;;5.03;4.53;;;;;;;;;;5117081;28;20228;-76
2021/04/11 03:13:08;;;;;;;5.10;4.47;;;;;;;;;;5117199;28;20465;-75
2021/04/11 03:15:34;;;;;;;5.80;4.10;;;;;;;;;;5116373;28;20237;-76
2021/04/11 03:18:01;;;;;;;4.73;4.30;;;;;;;;;;5117230;28;20647;-76
2021/04/11 03:20:28;;;;;;;5.30;4.90;;;;;;;;;;5116623;28;20248;-75
2021/04/11 03:22:55;;;;;;;5.13;4.43;;;;;;;;;;5116855;28;20209;-76
2021/04/11 03:25:23;;;;;;;5.57;4.50;;;;;;;;;;5116471;28;20273;-75
2021/04/11 03:27:53;;;;;;;4.80;4.40;;;;;;;;;;5116792;28;20557;-76
2021/04/11 03:30:22;;;;;;;4.70;4.30;;;;;;;;;;5116422;28;20205;-75
2021/04/11 03:32:51;;;;;;;9.43;4.03;;;;;;;;;;5116844;28;20200;-75
2021/04/11 03:35:19;;;;;;;6.53;4.37;;;;;;;;;;5116081;28;20328;-76
2021/04/11 03:37:46;;;;;;;4.50;4.10;;;;;;;;;;5116844;28;20601;-75
2021/04/11 03:40:13;;;;;;;6.00;4.60;;;;;;;;;;5116247;28;20228;-77
2021/04/11 03:42:42;;;;;;;6.47;4.30;;;;;;;;;;5116716;28;20239;-75
2021/04/11 03:45:08;;;;;;;6.50;4.30;;;;;;;;;;5114276;28;20654;-76
2021/04/11 03:47:37;;;;;;;5.97;4.10;;;;;;;;;;5116051;28;20212;-75
2021/04/11 03:50:05;;;;;;;6.30;4.33;;;;;;;;;;5115904;28;20228;-76
2021/04/11 03:52:34;;;;;;;5.20;4.20;;;;;;;;;;5116473;28;20540;-76
2021/04/11 03:55:01;;;;;;;4.77;4.17;;;;;;;;;;5116132;28;20200;-78
2021/04/11 03:57:29;;;;;;;4.70;4.30;;;;;;;;;;5116241;28;20236;-78
2021/04/11 03:59:59;;;;;;;4.47;4.07;;;;;;;;;;5115887;28;20228;-75
2021/04/11 04:02:27;;;;;;;7.57;4.80;;;;;;;;;;5116304;28;20200;-76
2021/04/11 04:04:54;;;;;;;6.10;4.37;;;;;;;;;;5115993;28;20271;-75
2021/04/11 04:07:21;;;;;;;4.60;4.20;;;;;;;;;;5116256;28;20232;-77
2021/04/11 04:09:50;;;;;;;8.47;4.40;;;;;;;;;;5115071;28;20237;-76
2021/04/11 04:12:20;;;;;;;4.50;4.10;;;;;;;;;;5115313;28;20248;-75
2021/04/11 04:15:02;;;;;;;6.70;4.47;;;;;;;;;;5097496;28;20214;-75
2021/04/11 04:17:30;;;;;;;5.10;4.37;;;;;;;;;;5116000;28;20228;-75
2021/04/11 04:20:02;;;;;;;4.60;4.20;;;;;;;;;;5115341;28;20243;-78
2021/04/11 04:22:43;;;;;;;5.13;4.10;;;;;;;;;;5115840;28;20228;-75
2021/04/11 04:25:17;;;;;;;4.87;4.43;;;;;;;;;;5110959;28;20247;-75
2021/04/11 04:27:54;;;;;;;5.00;4.53;;;;;;;;;;5115789;28;20208;-78
2021/04/11 04:30:23;;;;;;;4.90;4.40;;;;;;;;;;5115242;28;20235;-75
2021/04/11 04:33:00;;;;;;;5.07;4.60;;;;;;;;;;5116007;28;20201;-75
2021/04/11 04:35:31;;;;;;;6.67;4.17;;;;;;;;;;5115550;28;20554;-76
2021/04/11 04:38:04;;;;;;;5.20;4.70;;;;;;;;;;5115345;28;20236;-76
2021/04/11 04:40:35;;;;;;;6.77;4.40;;;;;;;;;;5115080;28;20232;-75
2021/04/11 04:43:02;;;;;;;4.73;4.23;;;;;;;;;;5115695;28;20213;-77
2021/04/11 04:45:32;;;;;;;4.70;4.23;;;;;;;;;;5115111;28;20233;-78
2021/04/11 04:48:05;;;;;;;4.50;4.10;;;;;;;;;;5115472;28;20231;-78
2021/04/11 04:50:34;;;;;;;5.10;4.13;;;;;;;;;;5115298;28;20216;-77
2021/04/11 04:53:04;;;;;;;6.30;4.37;;;;;;;;;;5115336;28;20239;-75
2021/04/11 04:55:32;;;;;;;4.70;4.30;;;;;;;;;;5114551;28;20217;-75
2021/04/11 04:58:00;;;;;;;6.10;4.57;;;;;;;;;;5115639;28;20612;-76
2021/04/11 05:00:28;;;;;;;6.20;4.90;;;;;;;;;;5114946;28;20230;-75
2021/04/11 05:02:58;;;;;;;6.67;4.30;;;;;;;;;;5115195;28;20224;-77
2021/04/11 05:05:26;;;;;;;6.30;4.33;;;;;;;;;;5114741;28;20263;-78
2021/04/11 05:07:55;;;;;;;5.93;4.63;;;;;;;;;;5115561;28;20571;-75
2021/04/11 05:10:23;;;;;;;5.20;4.47;;;;;;;;;;5115062;28;20228;-76
2021/04/11 05:12:51;;;;;;;8.33;4.90;;;;;;;;;;5114774;28;20275;-76
2021/04/11 05:15:19;;;;;;;9.50;4.67;;;;;;;;;;5115116;28;20236;-77
2021/04/11 05:17:49;;;;;;;5.63;4.77;;;;;;;;;;5115339;28;20276;-75
2021/04/11 05:20:18;;;;;;;5.93;4.73;;;;;;;;;;5114521;28;20209;-76
2021/04/11 05:22:47;;;;;;;4.67;4.23;;;;;;;;;;5115314;28;20205;-75
2021/04/11 05:25:15;;;;;;;4.80;4.40;;;;;;;;;;5114653;28;20249;-75
2021/04/11 05:27:46;;;;;;;4.77;4.33;;;;;;;;;;5115377;28;20668;-75
2021/04/11 05:30:15;;;;;;;4.93;4.57;;;;;;;;;;5114566;28;20251;-75
2021/04/11 05:32:42;;;;;;;8.53;4.53;;;;;;;;;;5114821;28;20224;-76
2021/04/11 05:35:10;;;;;;;4.83;4.13;;;;;;;;;;5114949;28;20209;-75
2021/04/11 05:37:40;;;;;;;6.00;4.73;;;;;;;;;;5115126;28;20227;-75
2021/04/11 05:40:11;;;;;;;7.27;4.23;;;;;;;;;;5114149;28;20233;-75
2021/04/11 05:42:41;;;;;;;5.77;4.17;;;;;;;;;;5114942;28;20236;-74
2021/04/11 05:45:12;;;;;;;4.23;3.83;;;;;;;;;;5114533;28;20564;-75
2021/04/11 05:47:42;;;;;;;5.00;4.07;;;;;;;;;;5115079;28;20511;-75
2021/04/11 05:50:10;;;;;;;5.23;4.17;;;;;;;;;;5114622;28;20205;-74
2021/04/11 05:52:40;;;;;;;6.10;3.87;;;;;;;;;;5096479;28;20197;-75
2021/04/11 05:55:08;;;;;;;4.27;3.60;;;;;;;;;;5113998;28;20255;-75
2021/04/11 05:57:37;;;;;;;5.27;3.80;;;;;;;;;;5114792;28;20482;-74
2021/04/11 06:00:06;;;;;;;4.90;4.07;;;;;;;;;;5114430;28;20233;-74
2021/04/11 06:02:36;;;;;;;4.73;3.80;;;;;;;;;;5114633;28;20205;-74
2021/04/11 06:05:05;;;;;;;4.33;3.93;;;;;;;;;;5114167;28;20271;-74
2021/04/11 06:07:36;;;;;;;3.83;3.53;;;;;;;;;;5115981;28;20205;-74
2021/04/11 06:10:05;;;;;;;4.27;3.87;;;;;;;;;;5117524;28;20233;-75
2021/04/11 06:12:34;;;;;;;4.73;4.20;;;;;;;;;;5117668;28;20575;-75
2021/04/11 06:15:02;;;;;;;4.80;4.03;;;;;;;;;;5099368;28;20197;-74
2021/04/11 06:17:29;;;;;;;5.67;4.13;;;;;;;;;;5117535;28;20252;-76
2021/04/11 06:19:56;;;;;;;4.70;3.90;;;;;;;;;;5117220;28;20618;-74
2021/04/11 06:22:24;;;;;;;7.30;4.10;;;;;;;;;;5117234;28;20228;-77
2021/04/11 06:24:52;;;;;;;4.17;3.77;;;;;;;;;;5116917;28;20245;-75
2021/04/11 06:27:27;;;;;;;4.00;3.60;;;;;;;;;;5117161;28;20229;-75
2021/04/11 06:29:56;;;;;;;3.70;3.40;;;;;;;;;;5117191;28;20235;-75
2021/04/11 06:32:23;;;;;;;3.33;3.03;;;;;;;;;;5117436;28;20512;-76
2021/04/11 06:34:52;;;;;;;6.60;3.70;;;;;;;;;;5116747;28;20225;-77
2021/04/11 06:37:20;;;;;;;5.70;4.20;;;;;;;;;;5116948;28;20244;-74
2021/04/11 06:39:46;;;;;;;3.90;3.50;;;;;;;;;;5117104;28;20200;-74
2021/04/11 06:42:24;;;;;;;5.43;3.93;;;;;;;;;;5116431;28;20235;-75
2021/04/11 06:45:02;;;;;;;3.60;3.30;;;;;;;;;;5116607;28;20253;-76
2021/04/11 06:47:43;;;;;;;6.67;4.20;;;;;;;;;;5116015;28;20236;-76
2021/04/11 06:50:23;;;;;;;4.60;4.10;;;;;;;;;;5103170;28;20296;-76
2021/04/11 06:53:10;;;;;;;3.77;2.90;;;;;;;;;;5116858;28;20224;-76
2021/04/11 06:55:43;;;;;;;3.13;2.90;;;;;;;;;;5074093;28;20674;-76
2021/04/11 06:58:14;;;;;;;3.03;2.63;;;;;;;;;;5117044;28;20242;-75
2021/04/11 07:00:46;;;;;;;4.80;3.10;;;;;;;;;;5115854;28;20205;-75
2021/04/11 07:03:31;;;;;;;3.37;2.80;;;;;;;;;;5116809;28;20236;-76
2021/04/11 07:06:24;;;;;;;3.67;3.03;;;;;;;;;;5116001;28;20286;-75
2021/04/11 07:08:57;;;;;;;4.03;2.90;;;;;;;;;;5056956;28;20286;-76
2021/04/11 07:11:42;;;;;;;3.30;3.00;;;;;;;;;;5115049;28;20786;-75
2021/04/11 07:14:31;;;;;;;4.80;2.80;;;;;;;;;;5116973;28;20625;-76
2021/04/11 07:17:21;;;;;;;2.97;2.80;;;;;;;;;;5116975;28;20241;-75
2021/04/11 07:20:06;;;;;;;6.60;2.97;;;;;;;;;;5115929;28;20231;-75
2021/04/11 07:22:43;;;;;;;2.87;2.67;;;;;;;;;;5117015;28;20192;-76
2021/04/11 07:25:23;;;;;;;3.67;2.40;;;;;;;;;;5116061;28;20252;-76
2021/04/11 07:27:56;;;;;;;3.70;2.20;;;;;;;;;;5116601;28;20200;-75
2021/04/11 07:30:32;;;;;;;3.27;2.27;;;;;;;;;;5116726;28;20250;-75
2021/04/11 07:33:21;;;;;;;1.93;1.83;;;;;;;;;;5116973;28;20278;-77
2021/04/11 07:36:04;;;;;;;1.83;1.80;;;;;;;;;;5130510;27;20228;-75
2021/04/11 07:38:34;;;;;;;2.70;2.33;;;;;;;;;;5134420;27;20236;-76
2021/04/11 07:41:17;;;;;;;3.17;1.90;;;;;;;;;;5122851;27;20256;-75
2021/04/11 07:43:55;;;;;;;1.60;1.30;;;;;;;;;;5102966;28;20247;-76
2021/04/11 07:46:28;;;;;;;1.40;1.30;;;;;;;;;;5094552;28;20301;-75
2021/04/11 07:49:06;;;;;;;1.40;1.30;;;;;;;;;;5113570;28;20233;-76
2021/04/11 07:51:42;;;;;;;1.37;1.30;;;;;;;;;;5094859;28;20250;-74
2021/04/11 07:54:18;;;;;;;4.13;1.60;;;;;;;;;;5112847;28;20240;-75
2021/04/11 07:56:53;;;;;;;4.20;1.60;;;;;;;;;;5094842;28;20277;-75
2021/04/11 07:59:35;;;;;;;2.57;1.60;;;;;;;;;;5112931;28;20228;-75
2021/04/11 08:02:14;;;;;;;1.80;1.20;;;;;;;;;;5110994;28;20609;-75
2021/04/11 08:04:50;;;;;;;1.40;1.30;;;;;;;;;;5112530;28;20553;-76
2021/04/11 08:07:26;;;;;;;4.67;1.40;;;;;;;;;;5112364;28;20281;-76
2021/04/11 08:09:59;;;;;;;3.10;1.43;;;;;;;;;;5113130;28;20231;-77
2021/04/11 08:12:43;;;;;;;1.23;1.13;;;;;;;;;;5111606;28;20721;-76
2021/04/11 08:15:13;;;;;;;1.40;1.30;;;;;;;;;;5111222;28;20246;-76
2021/04/11 08:17:51;;;;;;;1.50;1.30;;;;;;;;;;5108986;28;20224;-77
2021/04/11 08:20:23;;;;;;;1.83;1.20;;;;;;;;;;5111997;28;20243;-76
2021/04/11 08:23:06;;;;;;;0.80;0.80;;;;;;;;;;5112170;28;20233;-77
2021/04/11 08:25:36;;;;;;;1.13;1.03;;;;;;;;;;5111148;28;20365;-76
2021/04/11 08:28:21;;;;;;;1.20;1.20;;;;;;;;;;5109867;28;20236;-77
2021/04/11 08:30:55;;;;;;;0.87;0.83;;;;;;;;;;5111171;28;20265;-77
2021/04/11 08:33:39;;;;;;;0.90;0.90;;;;;;;;;;5109373;28;20526;-76
2021/04/11 08:36:24;;;;;;;1.40;1.10;;;;;;;;;;5091821;28;20212;-77
2021/04/11 08:39:01;;;;;;;1.00;1.00;;;;;;;;;;5110602;28;20228;-77
2021/04/11 08:41:38;;;;;;;1.13;1.03;;;;;;;;;;5092086;28;20228;-76
2021/04/11 08:44:14;;;;;;;2.20;1.00;;;;;;;;;;5092271;28;20343;-76
2021/04/11 08:46:46;;;;;;;3.80;1.13;;;;;;;;;;5092149;28;20889;-80
2021/04/11 08:49:17;;;;;;;1.77;1.03;;;;;;;;;;5092397;28;20237;-77
2021/04/11 08:51:49;;;;;;;1.40;1.00;;;;;;;;;;5091408;28;20614;-78
2021/04/11 08:54:23;;;;;;;0.83;0.83;;;;;;;;;;5092409;28;20614;-77
2021/04/11 08:56:52;;;;;;;1.37;1.03;;;;;;;;;;5091596;28;20291;-79
2021/04/11 08:59:27;;;;;;;1.00;1.00;;;;;;;;;;5091924;28;20238;-77
2021/04/11 09:02:05;;;;;;;0.90;0.90;;;;;;;;;;5091385;28;20229;-77
2021/04/11 09:04:34;;;;;;;1.10;1.00;;;;;;;;;;5091885;28;20578;-75
2021/04/11 09:07:06;;;;;;;1.00;0.87;;;;;;;;;;5091739;28;20237;-76
2021/04/11 09:09:43;;;;;;;1.13;0.80;;;;;;;;;;5092358;28;20233;-78
2021/04/11 09:12:14;;;;;;;1.23;1.17;;;;;;;;;;5090459;28;20665;-75
2021/04/11 09:14:44;;;;;;;1.60;1.17;;;;;;;;;;5091782;28;20692;-75
2021/04/11 09:17:15;;;;;;;2.93;0.87;;;;;;;;;;5091670;28;20597;-76
2021/04/11 09:19:43;;;;;;;2.10;1.13;;;;;;;;;;5091599;28;20625;-77
2021/04/11 09:22:18;;;;;;;0.90;0.90;;;;;;;;;;5090227;28;20230;-75
2021/04/11 09:24:47;;;;;;;1.10;1.00;;;;;;;;;;5091134;28;20267;-77
2021/04/11 09:27:28;;;;;;;3.27;1.33;;;;;;;;;;5090588;28;20240;-78
2021/04/11 09:29:59;;;;;;;1.60;1.20;;;;;;;;;;5100874;28;20228;-76
2021/04/11 09:32:40;;;;;;;1.10;0.90;;;;;;;;;;5110783;28;20217;-79
2021/04/11 09:35:19;;;;;;;0.93;0.93;;;;;;;;;;5097911;28;20237;-79
2021/04/11 09:38:15;;;;;;;3.27;1.10;;;;;;;;;;5111332;28;20228;-76
2021/04/11 09:40:56;;;;;;;2.77;1.30;;;;;;;;;;5111178;28;20237;-77
2021/04/11 09:43:40;;;;;;;1.87;1.13;;;;;;;;;;5110377;28;20558;-80
2021/04/11 09:46:20;;;;;;;2.63;1.00;;;;;;;;;;5115072;28;20253;-77
2021/04/11 09:48:59;;;;;;;1.10;0.90;;;;;;;;;;5114871;28;20242;-79
2021/04/11 09:51:40;;;;;;;1.13;1.03;;;;;;;;;;5115569;28;20296;-78
2021/04/11 09:54:12;;;;;;;0.90;0.90;;;;;;;;;;5115047;28;20240;-79
2021/04/11 09:56:52;;;;;;;2.57;1.43;;;;;;;;;;5114624;28;20237;-80
2021/04/11 09:59:30;;;;;;;1.27;1.27;;;;;;;;;;5114791;28;20710;-78
2021/04/11 10:02:03;;;;;;;1.30;1.20;;;;;;;;;;5114370;28;20228;-76
2021/04/11 10:04:34;;;;;;;1.63;1.47;;;;;;;;;;5114991;28;20639;-77
2021/04/11 10:07:08;;;;;;;1.90;1.00;;;;;;;;;;5115249;28;20232;-77
2021/04/11 10:09:42;;;;;;;1.63;1.10;;;;;;;;;;5115297;28;20209;-76
2021/04/11 10:12:23;;;;;;;1.43;1.30;;;;;;;;;;5114534;28;20256;-77
2021/04/11 10:14:54;;;;;;;1.80;1.70;;;;;;;;;;5115353;28;20281;-77
2021/04/11 10:17:28;;;;;;;1.33;1.23;;;;;;;;;;5115560;28;20229;-77
2021/04/11 10:20:00;;;;;;;2.40;1.93;;;;;;;;;;5115145;28;20233;-75
2021/04/11 10:22:34;;;;;;;1.10;1.10;;;;;;;;;;5115094;28;20229;-75
2021/04/11 10:25:10;;;;;;;2.53;1.10;;;;;;;;;;5096774;28;20239;-75
2021/04/11 10:27:40;;;;;;;0.90;0.90;;;;;;;;;;5115016;28;20247;-76
2021/04/11 10:30:08;;;;;;;1.13;1.00;;;;;;;;;;5101235;28;20591;-76
2021/04/11 10:32:41;;;;;;;1.73;1.20;;;;;;;;;;5093250;28;20336;-77
2021/04/11 10:35:11;;;;;;;1.73;1.13;;;;;;;;;;5094152;28;20229;-76
2021/04/11 10:37:39;;;;;;;1.17;1.10;;;;;;;;;;5094596;28;20253;-77
2021/04/11 10:40:09;;;;;;;1.30;1.20;;;;;;;;;;5094768;28;20244;-76
2021/04/11 10:42:45;;;;;;;2.73;1.30;;;;;;;;;;5094235;28;20245;-77
2021/04/11 10:45:26;;;;;;;1.20;1.13;;;;;;;;;;5094537;28;20249;-76
2021/04/11 10:48:19;;;;;;;2.30;1.20;;;;;;;;;;5091502;28;20230;-75
2021/04/11 10:50:50;;;;;;;1.30;1.20;;;;;;;;;;5094624;28;20241;-78
2021/04/11 10:53:23;;;;;;;2.40;1.00;;;;;;;;;;5094527;28;20290;-76
2021/04/11 10:56:03;;;;;;;1.17;1.07;;;;;;;;;;5094268;28;20230;-75
2021/04/11 10:58:46;;;;;;;3.97;1.20;;;;;;;;;;5094244;28;20237;-75
2021/04/11 11:01:29;;;;;;;1.20;1.10;;;;;;;;;;5094428;28;20596;-76
2021/04/11 11:04:13;;;;;;;0.90;0.90;;;;;;;;;;5094280;28;20630;-76
2021/04/11 11:06:54;;;;;;;1.10;1.10;;;;;;;;;;5094117;28;20641;-78
2021/04/11 11:09:25;;;;;;;1.30;0.90;;;;;;;;;;5094924;28;20609;-78
2021/04/11 11:11:57;;;;;;;1.97;0.90;;;;;;;;;;5104048;28;20240;-76
2021/04/11 11:14:36;;;;;;;2.07;1.43;;;;;;;;;;5114910;28;20239;-78
2021/04/11 11:17:11;;;;;;;1.10;1.10;;;;;;;;;;5113904;28;20848;-78
2021/04/11 11:19:47;;;;;;;1.37;1.20;;;;;;;;;;5114293;28;20232;-76
2021/04/11 11:22:23;;;;;;;1.57;1.40;;;;;;;;;;5114187;28;20561;-75
2021/04/11 11:24:59;;;;;;;2.60;1.00;;;;;;;;;;5114222;28;20244;-77
2021/04/11 11:27:46;;;;;;;1.13;1.07;;;;;;;;;;5113502;28;20240;-77
2021/04/11 11:30:30;;;;;;;0.80;0.80;;;;;;;;;;5113552;28;20670;-77
2021/04/11 11:33:03;;;;;;;2.43;1.00;;;;;;;;;;5099154;28;20243;-78
2021/04/11 11:35:29;;;;;;;0.97;0.97;;;;;;;;;;5112912;28;20531;-76
2021/04/11 11:37:59;;;;;;;1.90;0.90;;;;;;;;;;5113432;28;20256;-76
2021/04/11 11:40:29;;;;;;;1.23;1.10;;;;;;;;;;5112849;28;20240;-76
2021/04/11 11:43:00;;;;;;;0.87;0.80;;;;;;;;;;5112849;28;20237;-77
2021/04/11 11:45:29;;;;;;;1.20;1.00;;;;;;;;;;5112892;28;20249;-77
2021/04/11 11:47:59;;;;;;;1.40;1.30;;;;;;;;;;5112395;28;20224;-77
2021/04/11 11:50:28;;;;;;;0.90;0.90;;;;;;;;;;5112619;28;20233;-79
2021/04/11 11:52:57;;;;;;;0.90;0.90;;;;;;;;;;5112174;28;20232;-78
2021/04/11 11:55:25;;;;;;;1.07;1.07;;;;;;;;;;5112248;28;20635;-78
2021/04/11 11:57:54;;;;;;;3.00;2.30;;;;;;;;;;5112337;28;20289;-79
2021/04/11 12:00:22;;;;;;;1.50;1.40;;;;;;;;;;5112798;28;20236;-76
2021/04/11 12:02:56;;;;;;;2.27;1.00;;;;;;;;;;5111420;28;20236;-77
2021/04/11 12:05:24;;;;;;;1.00;1.00;;;;;;;;;;5112118;28;20616;-77
2021/04/11 12:07:58;;;;;;;1.83;1.10;;;;;;;;;;5112460;28;20245;-78
2021/04/11 12:10:27;;;;;;;1.87;1.70;;;;;;;;;;5112726;28;20240;-77
2021/04/11 12:12:56;;;;;;;1.37;1.30;;;;;;;;;;5093016;28;20326;-76
2021/04/11 12:15:24;;;;;;;1.40;1.10;;;;;;;;;;5112047;28;20232;-79
2021/04/11 12:17:53;;;;;;;1.37;1.20;;;;;;;;;;5111686;28;20590;-76
2021/04/11 12:20:22;;;;;;;1.63;1.30;;;;;;;;;;5112394;28;20241;-76
2021/04/11 12:22:51;;;;;;;1.53;1.30;;;;;;;;;;5111142;28;20235;-78
2021/04/11 12:25:20;;;;;;;1.93;1.50;;;;;;;;;;5112273;28;20248;-77
2021/04/11 12:27:47;;;;;;;1.10;1.10;;;;;;;;;;5112114;28;20240;-76
2021/04/11 12:30:15;;;;;;;1.77;1.60;;;;;;;;;;5105226;28;20229;-78
2021/04/11 12:32:47;;;;;;;1.20;1.20;;;;;;;;;;5110741;28;20256;-77
2021/04/11 12:35:19;;;;;;;1.37;1.20;;;;;;;;;;5111902;28;20232;-77
2021/04/11 12:37:50;;;;;;;3.00;1.30;;;;;;;;;;5111095;28;20224;-76
2021/04/11 12:40:20;;;;;;;3.60;1.40;;;;;;;;;;5112085;28;20240;-76
2021/04/11 12:42:51;;;;;;;2.33;1.30;;;;;;;;;;5111658;28;20470;-76
2021/04/11 12:45:20;;;;;;;1.23;1.23;;;;;;;;;;5093706;28;20258;-76
2021/04/11 12:47:49;;;;;;;1.10;1.10;;;;;;;;;;5111812;28;20309;-78
2021/04/11 12:50:21;;;;;;;1.90;1.17;;;;;;;;;;5111767;28;20232;-76
2021/04/11 12:53:00;;;;;;;1.40;1.37;;;;;;;;;;5111240;28;20233;-76
2021/04/11 12:55:27;;;;;;;3.23;1.20;;;;;;;;;;5111825;28;20224;-76
2021/04/11 12:57:58;;;;;;;1.33;1.30;;;;;;;;;;5111828;28;20236;-76
2021/04/11 13:00:27;;;;;;;1.20;1.10;;;;;;;;;;5111879;28;20540;-75
2021/04/11 13:02:57;;;;;;;2.30;1.27;;;;;;;;;;5110568;28;20566;-75
2021/04/11 13:05:29;;;;;;;1.60;1.50;;;;;;;;;;5111540;28;20252;-75
2021/04/11 13:07:58;;;;;;;1.73;1.20;;;;;;;;;;5093499;28;20220;-77
2021/04/11 13:10:25;;;;;;;2.07;1.40;;;;;;;;;;5093746;28;20224;-76
2021/04/11 13:12:55;;;;;;;2.20;1.10;;;;;;;;;;5111467;28;20649;-77
2021/04/11 13:15:25;;;;;;;0.80;0.80;;;;;;;;;;5111294;28;20708;-76
2021/04/11 13:17:57;;;;;;;1.77;1.10;;;;;;;;;;5095292;28;20224;-76
2021/04/11 13:20:25;;;;;;;0.93;0.90;;;;;;;;;;5115465;28;20236;-77
2021/04/11 13:22:57;;;;;;;0.90;0.90;;;;;;;;;;5115286;28;20239;-76
2021/04/11 13:25:28;;;;;;;6.43;1.13;;;;;;;;;;5115950;28;20228;-78
2021/04/11 13:27:58;;;;;;;1.25;0.85;;;;;;;;;;5115250;28;20788;-79
2021/04/11 13:30:26;;;;;;;1.30;0.90;;;;;;;;;;5116172;28;20240;-76
2021/04/11 13:32:57;;;;;;;1.00;0.87;;;;;;;;;;5116448;28;20236;-78
2021/04/11 13:35:25;;;;;;;1.00;1.00;;;;;;;;;;5116022;28;20237;-77
2021/04/11 13:37:53;;;;;;;1.37;0.70;;;;;;;;;;5116210;28;20235;-78
2021/04/11 13:40:21;;;;;;;0.73;0.73;;;;;;;;;;5116328;28;20237;-78
2021/04/11 13:42:56;;;;;;;1.70;0.63;;;;;;;;;;5115528;28;20244;-79
2021/04/11 13:45:28;;;;;;;0.67;0.67;;;;;;;;;;5116664;28;20207;-78
2021/04/11 13:47:58;;;;;;;0.80;0.80;;;;;;;;;;5115842;28;20554;-78
2021/04/11 13:50:30;;;;;;;1.13;0.60;;;;;;;;;;5115729;28;20541;-79
2021/04/11 13:52:59;;;;;;;0.80;0.70;;;;;;;;;;5115849;28;20236;-79
2021/04/11 13:55:29;;;;;;;1.57;1.47;;;;;;;;;;5116515;28;20625;-80
2021/04/11 13:58:00;;;;;;;2.43;2.20;;;;;;;;;;5115512;28;20574;-79
2021/04/11 14:00:33;;;;;;;2.77;2.67;;;;;;;;;;5097304;28;20220;-78
2021/04/11 14:03:18;;;;;;;4.40;4.10;;;;;;;;;;5118764;28;20248;-80
2021/04/11 14:05:50;;;;;;;7.17;6.53;;;;;;;;;;5118570;28;20256;-80
2021/04/11 14:08:18;;;;;;;7.87;6.90;;;;;;;;;;5118989;28;20205;-80
2021/04/11 14:10:46;;;;;;;5.93;3.63;;;;;;;;;;5118506;28;20204;-79
2021/04/11 14:13:14;;;;;;;1.70;1.60;;;;;;;;;;5117428;28;20233;-77
2021/04/11 14:15:44;;;;;;;2.20;2.00;;;;;;;;;;5116883;28;20224;-77
2021/04/11 14:18:15;;;;;;;2.57;1.80;;;;;;;;;;5117330;28;20235;-78
2021/04/11 14:20:43;;;;;;;1.20;1.10;;;;;;;;;;5117109;28;20229;-76
2021/04/11 14:23:16;;;;;;;0.87;0.77;;;;;;;;;;5117040;28;20236;-78
2021/04/11 14:25:44;;;;;;;0.80;0.80;;;;;;;;;;5117159;28;20248;-77
2021/04/11 14:28:14;;;;;;;0.80;0.80;;;;;;;;;;5120799;28;20232;-77
2021/04/11 14:30:43;;;;;;;0.87;0.70;;;;;;;;;;5134694;28;20640;-78
2021/04/11 14:33:15;;;;;;;0.70;0.70;;;;;;;;;;5130274;28;20232;-76
2021/04/11 14:35:43;;;;;;;1.23;0.93;;;;;;;;;;5113867;28;20264;-78
2021/04/11 14:38:17;;;;;;;3.20;1.53;;;;;;;;;;5113978;28;20241;-79
2021/04/11 14:40:49;;;;;;;3.20;1.30;;;;;;;;;;5114070;28;20239;-76
2021/04/11 14:43:18;;;;;;;1.57;1.00;;;;;;;;;;5113916;28;20229;-77
2021/04/11 14:45:47;;;;;;;1.47;1.40;;;;;;;;;;5095181;28;20244;-78
2021/04/11 14:48:18;;;;;;;2.50;2.30;;;;;;;;;;5113630;28;20239;-75
2021/04/11 14:50:45;;;;;;;5.47;3.80;;;;;;;;;;5113580;28;20239;-79
2021/04/11 14:53:16;;;;;;;6.50;3.43;;;;;;;;;;5113602;28;20531;-77
2021/04/11 14:55:49;;;;;;;1.53;1.50;;;;;;;;;;5105655;28;20236;-79
2021/04/11 14:58:19;;;;;;;2.10;1.60;;;;;;;;;;5112318;28;20240;-79
2021/04/11 15:00:50;;;;;;;1.70;1.30;;;;;;;;;;5112774;28;20648;-80
2021/04/11 15:03:24;;;;;;;1.60;1.50;;;;;;;;;;5113255;28;20212;-80
2021/04/11 15:05:52;;;;;;;2.10;2.00;;;;;;;;;;5112668;28;20738;-77
2021/04/11 15:08:24;;;;;;;2.70;1.40;;;;;;;;;;5112810;28;20232;-78